createdAt,value
2018-07-04T00:00:43.321Z,69.58
2018-07-04T00:01:43.320Z,68.81
2018-07-04T00:02:43.077Z,69.49
2018-07-04T00:03:43.325Z,70.29
2018-07-04T00:04:43.320Z,69.78
2018-07-04T00:05:43.069Z,69.62
2018-07-04T00:06:43.320Z,69.81
2018-07-04T00:07:43.326Z,69.39
2018-07-04T00:08:43.088Z,69.13
2018-07-04T00:09:43.082Z,69.71
2018-07-04T00:10:43.331Z,69.32
2018-07-04T00:11:43.340Z,69.52
2018-07-04T00:12:43.086Z,69.62
2018-07-04T00:13:43.099Z,69.23
2018-07-04T00:14:43.093Z,70.2
2018-07-04T00:15:43.359Z,69.81
2018-07-04T00:16:43.366Z,69.71
2018-07-04T00:17:43.093Z,70.26
2018-07-04T00:18:43.382Z,69.78
2018-07-04T00:19:43.351Z,69.81
2018-07-04T00:20:43.353Z,69.9
2018-07-04T00:21:43.102Z,69.71
2018-07-04T00:22:43.112Z,70.39
2018-07-04T00:23:43.370Z,69.42
2018-07-04T00:24:43.362Z,70.26
2018-07-04T00:25:43.155Z,69.52
2018-07-04T00:26:43.357Z,69.81
2018-07-04T00:27:43.366Z,70.87
2018-07-04T00:28:43.394Z,71.26
2018-07-04T00:29:43.395Z,71.45
2018-07-04T00:30:43.402Z,71.12
2018-07-04T00:31:43.389Z,70.26
2018-07-04T00:32:43.133Z,70.26
2018-07-04T00:33:43.149Z,70.54
2018-07-04T00:34:43.389Z,70.2
2018-07-04T00:35:43.395Z,71.03
2018-07-04T00:36:43.395Z,70.78
2018-07-04T00:37:43.399Z,70.74
2018-07-04T00:38:43.158Z,71.06
2018-07-04T00:39:43.401Z,71.22
2018-07-04T00:40:43.403Z,71.12
2018-07-04T00:41:43.421Z,71.9
2018-07-04T00:42:43.410Z,72.38
2018-07-04T00:43:43.418Z,72.48
2018-07-04T00:44:43.165Z,72.38
2018-07-04T00:45:43.167Z,72.77
2018-07-04T00:46:43.425Z,72.67
2018-07-04T00:47:43.428Z,72.28
2018-07-04T00:48:43.187Z,71.32
2018-07-04T00:49:43.434Z,71.61
2018-07-04T00:50:43.436Z,70.54
2018-07-04T00:51:43.435Z,71.03
2018-07-04T00:52:43.187Z,70.36
2018-07-04T00:53:43.199Z,71.7
2018-07-04T00:54:43.190Z,71.22
2018-07-04T00:55:43.452Z,71.7
2018-07-04T00:56:43.455Z,72
2018-07-04T00:57:43.456Z,71.51
2018-07-04T00:58:43.474Z,71.8
2018-07-04T00:59:43.471Z,71.8
2018-07-04T01:00:43.483Z,70.94
2018-07-04T01:01:43.462Z,72.28
2018-07-04T01:02:43.462Z,72.38
2018-07-04T01:03:43.474Z,72.48
2018-07-04T01:04:43.213Z,72.77
2018-07-04T01:05:43.239Z,73.25
2018-07-04T01:06:43.218Z,73.31
2018-07-04T01:07:43.223Z,72.83
2018-07-04T01:08:43.233Z,73.54
2018-07-04T01:09:44.281Z,73.11
2018-07-04T01:10:43.496Z,73.11
2018-07-04T01:11:43.492Z,73.69
2018-07-04T01:12:43.505Z,73.11
2018-07-04T01:13:43.507Z,72.92
2018-07-04T01:14:43.240Z,73.21
2018-07-04T01:15:43.511Z,73.6
2018-07-04T01:16:43.495Z,73.41
2018-07-04T01:17:43.509Z,73.41
2018-07-04T01:18:43.514Z,73.21
2018-07-04T01:19:43.253Z,72.83
2018-07-04T01:20:43.262Z,72.73
2018-07-04T01:21:43.256Z,72.83
2018-07-04T01:22:43.268Z,73.02
2018-07-04T01:23:43.266Z,73.31
2018-07-04T01:24:43.268Z,73.31
2018-07-04T01:25:43.264Z,73.11
2018-07-04T01:26:43.520Z,73.11
2018-07-04T01:27:43.283Z,73.79
2018-07-04T01:28:43.292Z,73.89
2018-07-04T01:29:44.335Z,74.08
2018-07-04T01:30:43.295Z,73.99
2018-07-04T01:31:43.551Z,73.41
2018-07-04T01:32:43.521Z,73.79
2018-07-04T01:33:43.558Z,73.41
2018-07-04T01:34:43.542Z,73.21
2018-07-04T01:35:43.558Z,73.69
2018-07-04T01:36:43.561Z,73.41
2018-07-04T01:37:43.558Z,73.11
2018-07-04T01:38:43.559Z,73.69
2018-07-04T01:39:43.558Z,73.6
2018-07-04T01:40:43.582Z,73.6
2018-07-04T01:41:43.312Z,73.99
2018-07-04T01:42:43.563Z,74.27
2018-07-04T01:43:43.566Z,74.18
2018-07-04T01:44:43.319Z,74.18
2018-07-04T01:45:43.567Z,74.18
2018-07-04T01:46:43.322Z,75.14
2018-07-04T01:47:43.571Z,74.47
2018-07-04T01:48:43.587Z,74.37
2018-07-04T01:49:43.583Z,74.47
2018-07-04T01:50:43.580Z,74.57
2018-07-04T01:51:43.578Z,74.52
2018-07-04T01:52:43.583Z,73.95
2018-07-04T01:53:43.589Z,74.24
2018-07-04T01:54:43.591Z,73.95
2018-07-04T01:55:43.593Z,74.05
2018-07-04T01:56:43.672Z,74.05
2018-07-04T01:57:43.356Z,73.75
2018-07-04T01:58:43.361Z,73.08
2018-07-04T01:59:43.606Z,74.05
2018-07-04T02:00:43.361Z,73.75
2018-07-04T02:01:43.356Z,74.24
2018-07-04T02:02:43.643Z,75.1
2018-07-04T02:03:43.640Z,75.2
2018-07-04T02:04:43.622Z,74.91
2018-07-04T02:05:43.635Z,75.4
2018-07-04T02:06:43.373Z,76.17
2018-07-04T02:07:43.374Z,75.2
2018-07-04T02:08:43.375Z,75.1
2018-07-04T02:09:43.627Z,75.49
2018-07-04T02:10:43.626Z,75.1
2018-07-04T02:11:43.641Z,75.97
2018-07-04T02:12:43.377Z,75.49
2018-07-04T02:13:43.645Z,76.55
2018-07-04T02:14:43.645Z,76.07
2018-07-04T02:15:43.644Z,76.17
2018-07-04T02:16:43.391Z,76.45
2018-07-04T02:17:43.643Z,77.81
2018-07-04T02:18:43.671Z,77.03
2018-07-04T02:19:43.646Z,76.84
2018-07-04T02:20:43.664Z,76.26
2018-07-04T02:21:43.401Z,76.93
2018-07-04T02:22:43.670Z,78.09
2018-07-04T02:23:43.422Z,77.51
2018-07-04T02:24:43.660Z,78.09
2018-07-04T02:25:43.672Z,77.9
2018-07-04T02:26:43.446Z,77.61
2018-07-04T02:27:43.729Z,78.58
2018-07-04T02:28:43.687Z,79.93
2018-07-04T02:29:43.673Z,79.89
2018-07-04T02:30:43.677Z,80.27
2018-07-04T02:31:43.417Z,81.52
2018-07-04T02:32:43.672Z,81.62
2018-07-04T02:33:43.686Z,81.62
2018-07-04T02:34:43.440Z,82.2
2018-07-04T02:35:43.431Z,81.04
2018-07-04T02:36:43.433Z,81.24
2018-07-04T02:37:43.434Z,81.62
2018-07-04T02:38:43.720Z,81.52
2018-07-04T02:39:43.688Z,82.1
2018-07-04T02:40:43.446Z,82.29
2018-07-04T02:41:43.452Z,82.97
2018-07-04T02:42:43.697Z,82.87
2018-07-04T02:43:43.714Z,82.97
2018-07-04T02:44:43.694Z,83.26
2018-07-04T02:45:43.441Z,83.84
2018-07-04T02:46:43.708Z,84.52
2018-07-04T02:47:43.712Z,84.18
2018-07-04T02:48:43.472Z,84.38
2018-07-04T02:49:43.723Z,84.95
2018-07-04T02:50:43.497Z,84.66
2018-07-04T02:51:43.716Z,84.66
2018-07-04T02:52:43.457Z,85.14
2018-07-04T02:53:43.489Z,85.24
2018-07-04T02:54:43.718Z,85.14
2018-07-04T02:55:43.729Z,85.24
2018-07-04T02:56:43.738Z,84.66
2018-07-04T02:57:43.467Z,84.86
2018-07-04T02:58:43.491Z,84.18
2018-07-04T02:59:43.730Z,84.28
2018-07-04T03:00:43.728Z,84.66
2018-07-04T03:01:43.473Z,84.38
2018-07-04T03:02:43.736Z,84.38
2018-07-04T03:03:43.765Z,84.38
2018-07-04T03:04:43.746Z,84.76
2018-07-04T03:05:43.746Z,84.56
2018-07-04T03:06:43.741Z,83.99
2018-07-04T03:07:43.745Z,83.7
2018-07-04T03:08:43.498Z,82.93
2018-07-04T03:09:43.744Z,83.31
2018-07-04T03:10:43.747Z,83.22
2018-07-04T03:11:43.751Z,83.31
2018-07-04T03:12:43.490Z,82.06
2018-07-04T03:13:43.750Z,82.26
2018-07-04T03:14:43.751Z,81.96
2018-07-04T03:15:43.748Z,81.87
2018-07-04T03:16:43.760Z,82.26
2018-07-04T03:17:43.769Z,82.16
2018-07-04T03:18:43.803Z,82.26
2018-07-04T03:19:43.773Z,82.12
2018-07-04T03:20:43.508Z,82.12
2018-07-04T03:21:43.770Z,82.6
2018-07-04T03:22:43.765Z,83.56
2018-07-04T03:23:43.781Z,83.18
2018-07-04T03:24:43.767Z,82.31
2018-07-04T03:25:43.772Z,83.31
2018-07-04T03:26:43.772Z,83.89
2018-07-04T03:27:43.518Z,83.7
2018-07-04T03:28:43.525Z,83.22
2018-07-04T03:29:43.522Z,83.22
2018-07-04T03:30:46.990Z,83.22
2018-07-04T03:31:43.782Z,83.51
2018-07-04T03:32:43.789Z,82.45
2018-07-04T03:33:43.546Z,82.64
2018-07-04T03:34:43.527Z,82.06
2018-07-04T03:35:43.556Z,82.64
2018-07-04T03:36:43.543Z,82.45
2018-07-04T03:37:43.542Z,82.54
2018-07-04T03:38:43.541Z,83.41
2018-07-04T03:39:43.794Z,83.03
2018-07-04T03:40:43.792Z,83.12
2018-07-04T03:41:43.543Z,83.8
2018-07-04T03:42:43.795Z,83.41
2018-07-04T03:43:43.805Z,83.41
2018-07-04T03:44:43.553Z,83.22
2018-07-04T03:45:43.813Z,83.03
2018-07-04T03:46:43.799Z,83.12
2018-07-04T03:47:43.818Z,83.03
2018-07-04T03:48:43.853Z,82.35
2018-07-04T03:49:43.820Z,82.68
2018-07-04T03:50:43.809Z,82.26
2018-07-04T03:51:43.820Z,83.16
2018-07-04T03:52:43.600Z,82.45
2018-07-04T03:53:43.830Z,82.49
2018-07-04T03:54:43.814Z,82.74
2018-07-04T03:55:43.816Z,83.12
2018-07-04T03:56:43.823Z,82.64
2018-07-04T03:57:43.834Z,82.78
2018-07-04T03:58:43.845Z,82.2
2018-07-04T03:59:43.836Z,81.96
2018-07-04T04:00:43.576Z,82.16
2018-07-04T04:01:43.835Z,82.68
2018-07-04T04:02:43.828Z,82.59
2018-07-04T04:03:43.845Z,81.87
2018-07-04T04:04:43.591Z,82.1
2018-07-04T04:05:43.853Z,82.59
2018-07-04T04:06:43.595Z,82.26
2018-07-04T04:07:43.842Z,82.39
2018-07-04T04:08:43.851Z,82.78
2018-07-04T04:09:43.843Z,82.59
2018-07-04T04:10:43.874Z,82.39
2018-07-04T04:11:43.854Z,82.1
2018-07-04T04:12:43.866Z,82.2
2018-07-04T04:13:43.867Z,82.2
2018-07-04T04:14:43.604Z,81.81
2018-07-04T04:15:43.621Z,82.29
2018-07-04T04:16:43.860Z,82.1
2018-07-04T04:17:43.866Z,81.52
2018-07-04T04:18:43.628Z,81.14
2018-07-04T04:19:43.874Z,80.79
2018-07-04T04:20:43.870Z,80.89
2018-07-04T04:21:43.870Z,80.6
2018-07-04T04:22:43.629Z,79.74
2018-07-04T04:23:43.651Z,79.44
2018-07-04T04:24:43.624Z,79.25
2018-07-04T04:25:43.955Z,79.25
2018-07-04T04:26:43.892Z,78.03
2018-07-04T04:27:43.882Z,77.65
2018-07-04T04:28:43.898Z,75.85
2018-07-04T04:29:43.913Z,76.05
2018-07-04T04:30:43.899Z,75.22
2018-07-04T04:31:43.891Z,72.9
2018-07-04T04:32:43.899Z,72.06
2018-07-04T04:33:43.937Z,71.04
2018-07-04T04:34:43.907Z,70.17
2018-07-04T04:35:43.910Z,69.53
2018-07-04T04:36:43.687Z,69.43
2018-07-04T04:37:43.916Z,67.72
2018-07-04T04:38:43.684Z,67.63
2018-07-04T04:39:43.933Z,66.4
2018-07-04T04:40:43.938Z,66.88
2018-07-04T04:41:43.679Z,65.34
2018-07-04T04:42:43.949Z,64.11
2018-07-04T04:43:43.946Z,63.62
2018-07-04T04:44:43.700Z,62.69
2018-07-04T04:45:43.700Z,61.62
2018-07-04T04:46:43.960Z,61.91
2018-07-04T04:47:43.707Z,61.36
2018-07-04T04:48:43.730Z,60.97
2018-07-04T04:49:44.007Z,60.78
2018-07-04T04:50:43.977Z,60.88
2018-07-04T04:51:43.976Z,60.1
2018-07-04T04:52:43.984Z,60.68
2018-07-04T04:53:44.011Z,60.78
2018-07-04T04:54:44.111Z,60.3
2018-07-04T04:55:43.752Z,60.97
2018-07-04T04:56:44.015Z,61.07
2018-07-04T04:57:44.024Z,60.97
2018-07-04T04:58:43.776Z,60.2
2018-07-04T04:59:43.776Z,60.3
2018-07-04T05:00:44.042Z,60.97
2018-07-04T05:01:44.850Z,61.17
2018-07-04T05:02:44.042Z,61.17
2018-07-04T05:03:44.063Z,61.55
2018-07-04T05:04:43.810Z,62.33
2018-07-04T05:05:43.814Z,63.62
2018-07-04T05:06:43.815Z,64.5
2018-07-04T05:07:44.080Z,65.34
2018-07-04T05:08:43.828Z,66.56
2018-07-04T05:09:44.085Z,67.53
2018-07-04T05:10:44.089Z,68.27
2018-07-04T05:11:43.840Z,69.14
2018-07-04T05:12:43.845Z,68.91
2018-07-04T05:13:44.113Z,70.26
2018-07-04T05:14:43.848Z,71
2018-07-04T05:15:43.916Z,71
2018-07-04T05:16:44.115Z,71.48
2018-07-04T05:17:43.875Z,71.68
2018-07-04T05:18:44.129Z,71.39
2018-07-04T05:19:43.882Z,70.9
2018-07-04T05:20:44.130Z,71
2018-07-04T05:21:43.879Z,70.62
2018-07-04T05:22:44.245Z,71.1
2018-07-04T05:23:44.155Z,71.2
2018-07-04T05:24:44.165Z,71.58
2018-07-04T05:25:44.157Z,71.68
2018-07-04T05:26:44.154Z,71.97
2018-07-04T05:27:43.904Z,71.97
2018-07-04T05:28:43.906Z,71.88
2018-07-04T05:29:44.160Z,72.16
2018-07-04T05:30:44.182Z,71.58
2018-07-04T05:31:44.972Z,72.36
2018-07-04T05:32:44.174Z,71.88
2018-07-04T05:33:43.923Z,72.94
2018-07-04T05:34:44.180Z,73.61
2018-07-04T05:35:44.187Z,73.71
2018-07-04T05:36:44.192Z,73.09
2018-07-04T05:37:43.945Z,73.38
2018-07-04T05:38:44.198Z,72.45
2018-07-04T05:39:43.952Z,73.03
2018-07-04T05:40:44.204Z,72.16
2018-07-04T05:41:43.963Z,72.36
2018-07-04T05:42:44.229Z,71.78
2018-07-04T05:43:43.979Z,71.72
2018-07-04T05:44:43.966Z,70.84
2018-07-04T05:45:43.969Z,70.36
2018-07-04T05:46:44.221Z,70.07
2018-07-04T05:47:44.047Z,69.01
2018-07-04T05:48:43.979Z,69.43
2018-07-04T05:49:44.245Z,69.62
2018-07-04T05:50:44.269Z,68.75
2018-07-04T05:51:44.331Z,68.95
2018-07-04T05:52:43.997Z,68.27
2018-07-04T05:53:43.999Z,68.56
2018-07-04T05:54:44.278Z,67.98
2018-07-04T05:55:44.310Z,67.82
2018-07-04T05:56:44.007Z,67.82
2018-07-04T05:57:44.282Z,66.47
2018-07-04T05:58:44.024Z,65.11
2018-07-04T05:59:44.290Z,64.95
2018-07-04T06:00:44.040Z,63.62
2018-07-04T06:01:44.041Z,62.88
2018-07-04T06:02:44.403Z,60.97
2018-07-04T06:03:44.293Z,59.74
2018-07-04T06:04:44.296Z,58.9
2018-07-04T06:05:44.386Z,57.73
2018-07-04T06:06:44.309Z,58.03
2018-07-04T06:07:44.314Z,57.76
2018-07-04T06:08:44.338Z,57.96
2018-07-04T06:09:44.344Z,58.15
2018-07-04T06:10:44.076Z,57.86
2018-07-04T06:11:44.346Z,57.18
2018-07-04T06:12:44.082Z,55.27
2018-07-04T06:13:44.346Z,54.9
2018-07-04T06:23:46.336Z,58.54
2018-07-04T06:24:46.432Z,59.58
2018-07-04T06:25:46.348Z,59.94
2018-07-04T06:26:46.353Z,59.64
2018-07-04T06:27:46.358Z,60.23
2018-07-04T06:28:46.348Z,59.94
2018-07-04T06:29:46.353Z,59.19
2018-07-04T06:30:46.118Z,58.31
2018-07-04T06:31:46.125Z,57.18
2018-07-04T06:32:46.372Z,56.7
2018-07-04T06:33:46.417Z,56.52
2018-07-04T06:34:46.375Z,55.19
2018-07-04T06:35:46.380Z,54.22
2018-07-04T06:36:46.396Z,53.57
2018-07-04T06:37:46.415Z,52.72
2018-07-04T06:38:46.435Z,51.48
2018-07-04T06:39:46.410Z,51.58
2018-07-04T06:40:46.427Z,51.12
2018-07-04T06:41:46.176Z,50.63
2018-07-04T06:42:46.434Z,50.95
2018-07-04T06:43:46.186Z,50.16
2018-07-04T06:44:46.439Z,49.78
2018-07-04T06:45:46.452Z,49.02
2018-07-04T06:46:46.447Z,48.93
2018-07-04T06:47:46.463Z,48.54
2018-07-04T06:48:46.269Z,48.63
2018-07-04T06:49:46.467Z,48.63
2018-07-04T06:50:46.242Z,48.93
2018-07-04T06:51:46.485Z,49.12
2018-07-04T06:52:46.236Z,49.61
2018-07-04T06:53:46.499Z,48.93
2018-07-04T06:54:46.514Z,48.34
2018-07-04T06:55:46.521Z,49.12
2018-07-04T06:56:46.550Z,48.24
2018-07-04T06:57:46.525Z,48.07
2018-07-04T06:58:46.292Z,48.07
2018-07-04T06:59:46.300Z,48.34
2018-07-04T07:00:46.292Z,48.95
2018-07-04T07:01:46.577Z,48.54
2018-07-04T07:02:46.566Z,48.34
2018-07-04T07:03:46.565Z,46.63
2018-07-04T07:04:46.319Z,45.87
2018-07-04T07:05:46.334Z,44.34
2018-07-04T07:06:46.591Z,44.18
2018-07-04T07:07:46.604Z,43.03
2018-07-04T07:08:46.629Z,41.21
2018-07-04T07:09:46.624Z,40.72
2018-07-04T07:10:46.366Z,40.64
2018-07-04T07:11:46.632Z,40.27
2018-07-04T07:12:46.634Z,40.27
2018-07-04T07:13:46.641Z,39.39
2018-07-04T07:14:46.673Z,40.08
2018-07-04T07:15:46.421Z,40.27
2018-07-04T07:16:46.680Z,40.27
2018-07-04T07:17:46.683Z,40.17
2018-07-04T07:18:46.436Z,41.13
2018-07-04T07:19:46.708Z,41.8
2018-07-04T07:20:46.455Z,41.78
2018-07-04T07:21:46.737Z,41.19
2018-07-04T07:22:46.484Z,40.72
2018-07-04T07:23:46.485Z,41.11
2018-07-04T07:24:46.747Z,40.25
2018-07-04T07:25:46.753Z,39.49
2018-07-04T07:26:46.807Z,38.43
2018-07-04T07:27:46.771Z,37.76
2018-07-04T07:28:46.773Z,37.78
2018-07-04T07:29:46.781Z,36.22
2018-07-04T07:30:46.793Z,35.85
2018-07-04T07:31:46.801Z,35.28
2018-07-04T07:32:46.812Z,35.38
2018-07-04T07:33:46.566Z,35.87
2018-07-04T07:34:46.570Z,36.36
2018-07-04T07:35:46.837Z,36.74
2018-07-04T07:36:46.849Z,36.24
2018-07-04T07:37:46.624Z,35.55
2018-07-04T07:38:46.630Z,35.77
2018-07-04T07:39:46.629Z,35.57
2018-07-04T07:40:46.643Z,35.95
2018-07-04T07:41:46.653Z,35.77
2018-07-04T07:42:46.653Z,35.47
2018-07-04T07:43:46.918Z,35.39
2018-07-04T07:44:46.692Z,35
2018-07-04T07:45:46.934Z,34.82
2018-07-04T07:46:46.950Z,35.11
2018-07-04T07:47:46.989Z,35
2018-07-04T07:48:47.065Z,35.18
2018-07-04T07:49:46.725Z,35.39
2018-07-04T07:50:46.737Z,33.74
2018-07-04T07:51:47.000Z,33.64
2018-07-04T07:52:46.762Z,32.87
2018-07-04T07:53:47.023Z,32.39
2018-07-04T07:54:47.106Z,33.58
2018-07-04T07:55:47.042Z,33.58
2018-07-04T07:56:46.806Z,33.38
2018-07-04T07:57:47.101Z,33.65
2018-07-04T07:58:46.834Z,33.86
2018-07-04T07:59:46.837Z,34.13
2018-07-04T08:00:46.846Z,34.99
2018-07-04T08:01:47.214Z,34.78
2018-07-04T08:02:46.874Z,34.39
2018-07-04T08:03:46.880Z,33.72
2018-07-04T08:04:46.897Z,33.54
2018-07-04T08:05:47.197Z,32.28
2018-07-04T08:06:46.905Z,32.59
2018-07-04T08:07:46.924Z,32.67
2018-07-04T08:08:48.243Z,33.34
2018-07-04T08:09:46.956Z,33.74
2018-07-04T08:10:47.210Z,33.94
2018-07-04T08:11:47.214Z,33.54
2018-07-04T08:12:47.335Z,33.44
2018-07-04T08:13:46.978Z,33.15
2018-07-04T08:14:47.250Z,32.65
2018-07-04T08:15:47.269Z,32.46
2018-07-04T08:16:47.275Z,32.86
2018-07-04T08:17:47.303Z,32.77
2018-07-04T08:18:47.370Z,33.07
2018-07-04T08:19:47.303Z,32.48
2018-07-04T08:20:47.066Z,32.48
2018-07-04T08:21:47.329Z,32.77
2018-07-04T08:22:47.342Z,32.67
2018-07-04T08:23:47.090Z,30.91
2018-07-04T08:24:47.355Z,31.03
2018-07-04T08:25:47.370Z,29.47
2018-07-04T08:26:47.386Z,30.37
2018-07-04T08:27:47.395Z,30.45
2018-07-04T08:28:47.414Z,30.17
2018-07-04T08:29:47.412Z,29.68
2018-07-04T08:30:47.429Z,30.55
2018-07-04T08:31:47.189Z,32.87
2018-07-04T08:32:47.472Z,33.51
2018-07-04T08:33:47.454Z,34.38
2018-07-04T08:34:47.464Z,35.52
2018-07-04T08:35:47.225Z,36.39
2018-07-04T08:36:47.490Z,36.76
2018-07-04T08:37:47.510Z,36.47
2018-07-04T08:38:47.258Z,36.94
2018-07-04T08:39:47.515Z,36.84
2018-07-04T08:40:47.660Z,37.31
2018-07-04T08:41:47.529Z,37.79
2018-07-04T08:42:47.541Z,37.57
2018-07-04T08:43:47.553Z,37.87
2018-07-04T08:44:47.709Z,38.45
2018-07-04T08:45:47.315Z,37.67
2018-07-04T08:46:47.574Z,37.57
2018-07-04T08:47:47.591Z,38.55
2018-07-04T08:48:47.343Z,38.16
2018-07-04T08:49:47.344Z,37.96
2018-07-04T08:50:47.866Z,37.37
2018-07-04T08:51:47.365Z,37.55
2018-07-04T08:52:47.403Z,36.87
2018-07-04T08:53:47.634Z,37.37
2018-07-04T08:54:47.399Z,38.82
2018-07-04T08:55:47.653Z,38.02
2018-07-04T08:56:47.404Z,37.54
2018-07-04T08:57:47.409Z,37.83
2018-07-04T08:58:47.422Z,38.02
2018-07-04T08:59:47.433Z,37.55
2018-07-04T09:00:47.678Z,39.29
2018-07-04T09:01:47.444Z,38.9
2018-07-04T09:02:47.696Z,39.37
2018-07-04T09:03:47.704Z,39.37
2018-07-04T09:04:47.466Z,39.67
2018-07-04T09:05:47.466Z,39.16
2018-07-04T09:06:47.749Z,39.26
2018-07-04T09:07:47.745Z,39.45
2018-07-04T09:08:47.751Z,40.31
2018-07-04T09:09:47.511Z,40.11
2018-07-04T09:10:47.775Z,40.11
2018-07-04T09:11:47.870Z,40.78
2018-07-04T09:12:47.780Z,40.19
2018-07-04T09:13:47.789Z,40
2018-07-04T09:14:47.552Z,39.7
2018-07-04T09:15:47.809Z,39.33
2018-07-04T09:16:47.814Z,39.43
2018-07-04T09:17:47.569Z,39.23
2018-07-04T09:18:47.830Z,39.26
2018-07-04T09:19:47.839Z,38.96
2018-07-04T09:20:47.844Z,38.4
2018-07-04T09:21:47.606Z,38.4
2018-07-04T09:22:47.603Z,37.62
2018-07-04T09:23:47.863Z,37.62
2018-07-04T09:24:47.876Z,38.3
2018-07-04T09:25:47.888Z,38.3
2018-07-04T09:26:47.641Z,38.87
2018-07-04T09:27:47.889Z,38.87
2018-07-04T09:28:47.900Z,39.16
2018-07-04T09:29:47.910Z,39.43
2018-07-04T09:30:47.914Z,39.7
2018-07-04T09:31:47.944Z,40.39
2018-07-04T09:32:47.698Z,41.15
2018-07-04T09:33:47.706Z,40.95
2018-07-04T09:34:47.695Z,41.05
2018-07-04T09:35:47.957Z,42.12
2018-07-04T09:36:47.964Z,42
2018-07-04T09:37:47.987Z,41.61
2018-07-04T09:38:47.728Z,42
2018-07-04T09:39:47.739Z,42.2
2018-07-04T09:40:48.007Z,41.99
2018-07-04T09:41:48.005Z,42.18
2018-07-04T09:42:47.738Z,43.47
2018-07-04T09:43:48.063Z,43.74
2018-07-04T09:44:47.769Z,45.2
2018-07-04T09:45:48.016Z,44.03
2018-07-04T09:46:48.048Z,44.23
2018-07-04T09:47:48.148Z,44.98
2018-07-04T09:48:48.049Z,44.79
2018-07-04T09:49:48.242Z,46.05
2018-07-04T09:50:47.800Z,45.95
2018-07-04T09:51:48.081Z,46.54
2018-07-04T09:52:48.071Z,46.05
2018-07-04T09:53:48.078Z,45.68
2018-07-04T09:54:47.809Z,45.68
2018-07-04T09:55:47.821Z,44.9
2018-07-04T09:56:47.830Z,45.98
2018-07-04T09:57:47.832Z,46.17
2018-07-04T09:58:48.203Z,46.17
2018-07-04T09:59:48.110Z,46.56
2018-07-04T10:00:48.124Z,47.53
2018-07-04T10:01:48.129Z,47.52
2018-07-04T10:02:47.871Z,47.22
2018-07-04T10:03:47.880Z,47.03
2018-07-04T10:04:47.879Z,47.22
2018-07-04T10:05:47.920Z,46.54
2018-07-04T10:06:48.151Z,46.15
2018-07-04T10:07:47.894Z,46.15
2018-07-04T10:08:48.177Z,47.42
2018-07-04T10:09:48.186Z,47.59
2018-07-04T10:10:48.186Z,49.68
2018-07-04T10:11:47.921Z,52.84
2018-07-04T10:12:48.180Z,54.75
2018-07-04T10:13:47.933Z,56.21
2018-07-04T10:14:47.931Z,56.3
2018-07-04T10:15:47.943Z,54.36
2018-07-04T10:16:48.200Z,53.78
2018-07-04T10:17:47.943Z,52.4
2018-07-04T10:18:48.225Z,51.33
2018-07-04T10:19:48.216Z,56.37
2018-07-04T10:20:47.986Z,61.49
2018-07-04T10:21:48.238Z,67.85
2018-07-04T10:22:48.237Z,68.56
2018-07-04T10:54:07.820Z,99.99
2018-07-04T10:55:07.819Z,99.99
2018-07-04T10:56:07.816Z,99.99
2018-07-04T10:57:07.807Z,99.99
2018-07-04T10:58:07.806Z,99.99
2018-07-04T10:59:08.072Z,99.99
2018-07-04T11:00:07.816Z,99.99
2018-07-04T11:01:08.063Z,99.99
2018-07-04T11:02:07.807Z,99.99
2018-07-04T11:03:07.803Z,99.99
2018-07-04T11:04:08.066Z,99.99
2018-07-04T11:05:07.805Z,99.99
2018-07-04T11:06:08.068Z,99.99
2018-07-04T11:07:07.810Z,99.99
2018-07-04T11:08:08.075Z,99.99
2018-07-04T11:09:07.811Z,99.99
2018-07-04T11:10:07.819Z,99.99
2018-07-04T11:11:07.821Z,99.99
2018-07-04T11:12:07.815Z,99.99
2018-07-04T11:13:07.824Z,99.99
2018-07-04T11:14:07.820Z,99.99
2018-07-04T11:15:08.081Z,99.99
2018-07-04T11:16:07.822Z,99.99
2018-07-04T11:17:08.519Z,99.99
2018-07-04T11:18:08.084Z,99.99
2018-07-04T11:19:08.099Z,99.99
2018-07-04T11:20:08.105Z,99.99
2018-07-04T11:21:07.830Z,99.99
2018-07-04T11:22:08.112Z,99.99
2018-07-04T11:23:07.860Z,99.99
2018-07-04T11:24:08.107Z,99.99
2018-07-04T11:25:08.118Z,99.99
2018-07-04T11:26:07.845Z,99.99
2018-07-04T11:27:07.843Z,99.99
2018-07-04T11:28:07.850Z,99.99
2018-07-04T11:29:08.110Z,99.99
2018-07-04T11:30:07.850Z,99.99
2018-07-04T11:31:08.119Z,99.99
2018-07-04T11:32:08.119Z,99.99
2018-07-04T11:33:07.866Z,99.99
2018-07-04T11:34:07.868Z,99.99
2018-07-04T11:35:07.873Z,99.99
2018-07-04T11:36:08.166Z,99.99
2018-07-04T11:37:08.144Z,99.99
2018-07-04T11:38:08.148Z,99.99
2018-07-04T11:39:07.879Z,99.99
2018-07-04T11:40:08.142Z,99.99
2018-07-04T11:41:07.882Z,99.99
2018-07-04T11:42:07.880Z,99.99
2018-07-04T11:43:08.142Z,99.99
2018-07-04T11:44:07.890Z,99.99
2018-07-04T11:45:08.156Z,99.99
2018-07-04T11:46:07.899Z,99.99
2018-07-04T11:47:07.904Z,99.99
2018-07-04T11:48:07.894Z,99.99
2018-07-04T11:49:08.172Z,99.99
2018-07-04T11:50:08.164Z,99.99
2018-07-04T11:51:08.169Z,99.99
2018-07-04T11:52:08.171Z,99.99
2018-07-04T11:53:08.195Z,99.99
2018-07-04T11:54:08.226Z,99.99
2018-07-04T11:55:08.195Z,99.99
2018-07-04T11:56:07.937Z,99.99
2018-07-04T11:57:08.320Z,99.99
2018-07-04T11:58:07.933Z,99.99
2018-07-04T11:59:08.222Z,99.99
2018-07-04T12:00:08.193Z,99.99
2018-07-04T12:01:07.940Z,99.99
2018-07-04T12:02:08.194Z,99.99
2018-07-04T12:03:08.200Z,99.99
2018-07-04T12:04:07.963Z,99.99
2018-07-04T12:05:08.222Z,99.99
2018-07-04T12:06:07.967Z,99.99
2018-07-04T12:07:07.958Z,99.99
2018-07-04T12:08:08.235Z,99.99
2018-07-04T12:09:07.968Z,99.99
2018-07-04T12:10:08.238Z,99.99
2018-07-04T12:11:07.977Z,96.07
2018-07-04T12:12:08.241Z,92.4
2018-07-04T12:13:08.254Z,92.01
2018-07-04T12:14:08.249Z,90.8
2018-07-04T12:15:08.235Z,88.43
2018-07-04T12:16:08.258Z,87.75
2018-07-04T12:17:07.990Z,86.54
2018-07-04T12:18:08.260Z,81.3
2018-07-04T12:19:08.806Z,79.7
2018-07-04T12:20:08.279Z,82.41
2018-07-04T12:21:08.271Z,79.93
2018-07-04T12:22:08.273Z,74.6
2018-07-04T12:23:08.295Z,74.02
2018-07-04T12:24:08.036Z,74.06
2018-07-04T12:25:08.032Z,75.03
2018-07-04T12:26:08.307Z,75.84
2018-07-04T12:27:08.305Z,75.45
2018-07-04T12:28:08.328Z,74.04
2018-07-04T12:29:08.057Z,72.77
2018-07-04T12:30:08.057Z,72.33
2018-07-04T12:31:08.353Z,70.57
2018-07-04T12:32:08.068Z,69.41
2018-07-04T12:33:08.099Z,70.57
2018-07-04T12:34:08.341Z,71.45
2018-07-04T12:35:08.349Z,72.03
2018-07-04T12:36:08.343Z,71.88
2018-07-04T12:37:08.096Z,71.78
2018-07-04T12:38:08.108Z,72.98
2018-07-04T12:39:08.112Z,71.13
2018-07-04T12:40:08.364Z,70.65
2018-07-04T12:41:08.373Z,70.26
2018-07-04T12:42:08.126Z,70.55
2018-07-04T12:43:08.389Z,70.45
2018-07-04T12:44:08.142Z,69.19
2018-07-04T12:45:08.416Z,67.38
2018-07-04T12:46:08.150Z,67.76
2018-07-04T12:47:08.274Z,66.31
2018-07-04T12:48:08.171Z,66.21
2018-07-04T12:49:08.177Z,66.31
2018-07-04T12:50:08.429Z,66.34
2018-07-04T12:51:08.248Z,64.69
2018-07-04T12:52:08.435Z,64.39
2018-07-04T12:53:08.452Z,65.37
2018-07-04T12:54:08.785Z,63.13
2018-07-04T12:55:08.481Z,63.62
2018-07-04T12:56:08.478Z,64.59
2018-07-04T12:57:08.483Z,63.23
2018-07-04T12:58:08.482Z,62.93
2018-07-04T12:59:09.282Z,62.26
2018-07-04T13:00:08.489Z,61.67
2018-07-04T13:01:08.518Z,61.8
2018-07-04T13:02:08.271Z,61.41
2018-07-04T13:03:08.316Z,61.41
2018-07-04T13:04:08.516Z,61.73
2018-07-04T13:05:08.268Z,61.44
2018-07-04T13:06:08.550Z,59.49
2018-07-04T13:07:08.291Z,58.22
2018-07-04T13:08:08.534Z,58.22
2018-07-04T13:09:08.539Z,58.61
2018-07-04T13:10:08.570Z,58.51
2018-07-04T13:11:08.556Z,59.39
2018-07-04T13:12:08.317Z,60.72
2018-07-04T13:13:08.570Z,59.75
2018-07-04T13:14:08.578Z,59.85
2018-07-04T13:15:08.323Z,59.2
2018-07-04T13:16:08.643Z,59.88
2018-07-04T13:17:08.354Z,57.54
2018-07-04T13:18:08.353Z,57.84
2018-07-04T13:19:08.373Z,56.47
2018-07-04T13:20:08.613Z,56.37
2018-07-04T13:21:08.634Z,56.67
2018-07-04T13:22:08.374Z,56.47
2018-07-04T13:23:08.384Z,55.4
2018-07-04T13:24:08.633Z,55.3
2018-07-04T13:25:08.640Z,55.99
2018-07-04T13:26:08.644Z,55.5
2018-07-04T13:27:08.648Z,55.3
2018-07-04T13:28:08.677Z,54.23
2018-07-04T13:29:08.412Z,52.97
2018-07-04T13:30:08.668Z,52.8
2018-07-04T13:31:08.442Z,53.09
2018-07-04T13:32:08.902Z,53.11
2018-07-04T13:33:08.691Z,53.7
2018-07-04T13:34:08.446Z,53.31
2018-07-04T13:35:08.715Z,52.63